createdAt,value
2023-01-21T00:00:40.522Z,12.50
2023-01-21T00:03:06.742Z,13.23
2023-01-21T00:05:32.953Z,12.57
2023-01-21T00:08:01.131Z,12.47
2023-01-21T00:10:28.435Z,12.30
2023-01-21T00:12:54.494Z,11.80
2023-01-21T00:15:20.550Z,10.90
2023-01-21T00:17:46.606Z,12.50
2023-01-21T00:20:12.818Z,12.00
2023-01-21T00:22:39.040Z,10.73
2023-01-21T00:25:05.603Z,10.33
2023-01-21T00:27:31.654Z,11.20
2023-01-21T00:29:57.696Z,10.40
2023-01-21T00:32:23.775Z,8.63
2023-01-21T00:34:49.877Z,9.90
2023-01-21T00:37:15.970Z,10.13
2023-01-21T00:39:42.375Z,9.93
2023-01-21T00:42:10.492Z,10.10
2023-01-21T00:44:37.633Z,10.00
2023-01-21T00:47:03.970Z,9.63
2023-01-21T00:49:30.195Z,9.83
2023-01-21T00:51:56.998Z,9.60
2023-01-21T00:54:23.418Z,9.93
2023-01-21T00:56:49.662Z,10.17
2023-01-21T00:59:16.243Z,10.80
2023-01-21T01:01:42.600Z,11.17
2023-01-21T01:04:10.342Z,9.70
2023-01-21T01:06:36.421Z,10.07
2023-01-21T01:09:02.823Z,9.70
2023-01-21T01:11:29.950Z,10.00
2023-01-21T01:13:56.046Z,9.97
2023-01-21T01:16:22.520Z,10.90
2023-01-21T01:18:49.022Z,11.23
2023-01-21T01:21:17.144Z,10.60
2023-01-21T01:23:43.625Z,11.93
2023-01-21T01:26:13.112Z,12.17
2023-01-21T01:28:39.346Z,12.90
2023-01-21T01:31:07.696Z,12.70
2023-01-21T01:33:34.188Z,11.83
2023-01-21T01:36:06.209Z,12.83
2023-01-21T01:38:34.086Z,11.93
2023-01-21T01:41:01.000Z,12.40
2023-01-21T01:43:48.781Z,12.80
2023-01-21T01:46:15.184Z,12.80
2023-01-21T01:48:42.877Z,12.60
2023-01-21T01:51:09.067Z,11.30
2023-01-21T01:53:36.638Z,10.60
2023-01-21T01:56:03.926Z,11.37
2023-01-21T01:58:30.971Z,10.53
2023-01-21T02:00:57.553Z,11.83
2023-01-21T02:03:43.232Z,12.67
2023-01-21T02:06:31.695Z,10.90
2023-01-21T02:08:58.018Z,11.50
2023-01-21T02:11:24.545Z,10.93
2023-01-21T02:13:53.457Z,10.90
2023-01-21T02:16:41.375Z,11.07
2023-01-21T02:19:29.055Z,11.00
2023-01-21T02:22:15.734Z,10.80
2023-01-21T02:25:04.049Z,11.27
2023-01-21T02:27:36.238Z,10.30
2023-01-21T02:30:27.606Z,10.87
2023-01-21T02:33:30.734Z,11.20
2023-01-21T02:36:28.114Z,10.00
2023-01-21T02:39:06.413Z,9.70
2023-01-21T02:41:54.569Z,10.77
2023-01-21T02:44:22.738Z,10.27
2023-01-21T02:47:24.546Z,10.53
2023-01-21T02:49:50.566Z,9.20
2023-01-21T02:52:18.901Z,9.63
2023-01-21T02:55:11.976Z,10.90
2023-01-21T02:57:41.015Z,10.90
2023-01-21T03:00:22.679Z,10.33
2023-01-21T03:03:07.370Z,10.03
2023-01-21T03:05:52.254Z,10.20
2023-01-21T03:08:22.826Z,9.50
2023-01-21T03:10:51.836Z,9.83
2023-01-21T03:13:42.134Z,9.47
2023-01-21T03:16:29.021Z,10.13
2023-01-21T03:18:56.038Z,9.87
2023-01-21T03:21:25.877Z,9.30
2023-01-21T03:23:53.243Z,9.23
2023-01-21T03:26:35.315Z,9.90
2023-01-21T03:29:07.261Z,10.03
2023-01-21T03:31:34.264Z,10.33
2023-01-21T03:34:03.561Z,10.67
2023-01-21T03:36:41.588Z,9.93
2023-01-21T03:39:13.378Z,11.30
2023-01-21T03:41:39.906Z,10.23
2023-01-21T03:44:06.154Z,10.07
2023-01-21T03:47:03.192Z,11.03
2023-01-21T03:49:38.833Z,9.97
2023-01-21T03:52:05.731Z,10.40
2023-01-21T03:54:32.155Z,10.40
2023-01-21T03:56:58.216Z,10.30
2023-01-21T03:59:24.328Z,10.07
2023-01-21T04:01:50.475Z,10.00
2023-01-21T04:04:16.571Z,10.13
2023-01-21T04:06:42.606Z,10.30
2023-01-21T04:09:09.694Z,9.90
2023-01-21T04:11:35.757Z,9.43
2023-01-21T04:14:01.858Z,11.13
2023-01-21T04:16:27.951Z,10.20
2023-01-21T04:18:54.067Z,10.10
2023-01-21T04:21:20.135Z,11.23
2023-01-21T04:23:46.239Z,10.40
2023-01-21T04:26:12.379Z,10.50
2023-01-21T04:28:38.495Z,9.50
2023-01-21T04:31:04.644Z,10.80
2023-01-21T04:33:30.781Z,10.77
2023-01-21T04:35:58.422Z,10.50
2023-01-21T04:38:24.505Z,10.80
2023-01-21T04:40:50.554Z,10.40
2023-01-21T04:43:16.993Z,11.20
2023-01-21T04:45:43.089Z,11.30
2023-01-21T04:48:09.189Z,11.10
2023-01-21T04:50:35.312Z,12.20
2023-01-21T04:53:01.403Z,10.73
2023-01-21T04:55:27.470Z,11.37
2023-01-21T04:57:53.506Z,10.60
2023-01-21T05:00:19.916Z,11.50
2023-01-21T05:02:45.982Z,10.57
2023-01-21T05:05:12.151Z,10.87
2023-01-21T05:07:38.242Z,11.33
2023-01-21T05:10:04.551Z,11.90
2023-01-21T05:12:30.685Z,11.30
2023-01-21T05:14:59.384Z,10.87
2023-01-21T05:17:25.779Z,11.20
2023-01-21T05:19:51.835Z,10.57
2023-01-21T05:22:18.289Z,11.70
2023-01-21T05:24:44.342Z,10.73
2023-01-21T05:27:10.411Z,11.83
2023-01-21T05:29:36.634Z,10.93
2023-01-21T05:32:02.833Z,11.47
2023-01-21T05:34:28.980Z,10.77
2023-01-21T05:36:55.015Z,11.53
2023-01-21T05:39:21.091Z,10.10
2023-01-21T05:41:47.309Z,11.57
2023-01-21T05:44:13.389Z,11.20
2023-01-21T05:46:39.419Z,11.70
2023-01-21T05:49:05.889Z,11.33
2023-01-21T05:51:31.935Z,11.93
2023-01-21T05:53:58.142Z,12.57
2023-01-21T05:56:24.200Z,11.67
2023-01-21T05:58:50.255Z,11.43
2023-01-21T06:01:16.298Z,11.93
2023-01-21T06:03:42.489Z,11.80
2023-01-21T06:06:08.621Z,12.37
2023-01-21T06:08:34.711Z,12.43
2023-01-21T06:11:00.787Z,12.27
2023-01-21T06:13:26.966Z,11.00
2023-01-21T06:15:55.523Z,11.33
2023-01-21T06:18:22.494Z,11.83
2023-01-21T06:20:48.580Z,11.30
2023-01-21T06:23:14.785Z,11.80
2023-01-21T06:25:42.767Z,12.27
2023-01-21T06:28:12.075Z,12.70
2023-01-21T06:30:38.187Z,11.67
2023-01-21T06:33:04.580Z,12.50
2023-01-21T06:35:31.520Z,11.87
2023-01-21T06:37:57.734Z,11.27
2023-01-21T06:40:23.835Z,12.03
2023-01-21T06:42:49.882Z,11.33
2023-01-21T06:45:16.586Z,11.63
2023-01-21T06:47:43.358Z,12.13
2023-01-21T06:50:14.442Z,11.53
2023-01-21T06:52:45.743Z,11.63
2023-01-21T06:55:12.852Z,11.70
2023-01-21T06:57:39.260Z,11.07
2023-01-21T07:00:06.577Z,12.63
2023-01-21T07:02:32.764Z,13.03
2023-01-21T07:04:59.262Z,11.20
2023-01-21T07:07:25.799Z,12.47
2023-01-21T07:09:52.106Z,13.20
2023-01-21T07:12:18.215Z,12.93
2023-01-21T07:14:44.388Z,12.60
2023-01-21T07:17:10.472Z,12.97
2023-01-21T07:19:36.617Z,15.77
2023-01-21T07:22:02.689Z,13.57
2023-01-21T07:24:28.782Z,11.90
2023-01-21T07:26:56.116Z,13.00
2023-01-21T07:29:22.682Z,12.20
2023-01-21T07:31:48.839Z,12.60
2023-01-21T07:34:15.410Z,12.47
2023-01-21T07:36:41.511Z,11.83
2023-01-21T07:39:07.618Z,12.00
2023-01-21T07:41:33.765Z,13.60
2023-01-21T07:43:59.945Z,12.90
2023-01-21T07:46:26.457Z,11.80
2023-01-21T07:48:52.709Z,11.73
2023-01-21T07:51:19.810Z,12.70
2023-01-21T07:53:46.029Z,11.57
2023-01-21T07:56:12.543Z,9.87
2023-01-21T07:58:38.695Z,11.03
2023-01-21T08:01:07.391Z,10.50
2023-01-21T08:03:37.053Z,12.57
2023-01-21T08:06:06.557Z,11.37
2023-01-21T08:08:32.703Z,12.00
2023-01-21T08:10:58.761Z,11.93
2023-01-21T08:13:25.974Z,11.93
2023-01-21T08:15:53.512Z,10.30
2023-01-21T08:18:21.460Z,10.57
2023-01-21T08:20:48.411Z,9.33
2023-01-21T08:23:14.668Z,11.80
2023-01-21T08:25:41.110Z,10.50
2023-01-21T08:28:07.179Z,7.83
2023-01-21T08:30:33.353Z,11.83
2023-01-21T08:32:59.496Z,12.40
2023-01-21T08:35:25.607Z,12.30
2023-01-21T08:37:54.671Z,11.70
2023-01-21T08:40:20.880Z,10.87
2023-01-21T08:42:47.011Z,9.80
2023-01-21T08:45:15.271Z,11.53
2023-01-21T08:47:41.519Z,10.90
2023-01-21T08:50:08.884Z,11.70
2023-01-21T08:52:34.931Z,11.40
2023-01-21T08:55:01.297Z,10.73
2023-01-21T08:57:27.361Z,10.77
2023-01-21T08:59:53.445Z,9.83
2023-01-21T09:02:19.563Z,10.90
2023-01-21T09:04:45.783Z,10.53
2023-01-21T09:07:11.849Z,15.80
2023-01-21T09:09:37.948Z,10.63
2023-01-21T09:12:07.358Z,10.00
2023-01-21T09:14:33.582Z,9.87
2023-01-21T09:16:59.685Z,9.53
2023-01-21T09:19:26.611Z,11.43
2023-01-21T09:21:54.778Z,9.40
2023-01-21T09:24:21.442Z,10.40
2023-01-21T09:26:47.495Z,8.47
2023-01-21T09:29:13.543Z,9.37
2023-01-21T09:31:39.745Z,9.03
2023-01-21T09:34:06.028Z,9.00
2023-01-21T09:36:34.036Z,9.67
2023-01-21T09:39:00.226Z,8.87
2023-01-21T09:41:41.490Z,8.67
2023-01-21T09:44:36.139Z,9.50
2023-01-21T09:47:23.280Z,8.60
2023-01-21T09:49:54.868Z,9.77
2023-01-21T09:52:29.975Z,10.00
2023-01-21T09:54:57.137Z,10.17
2023-01-21T09:57:44.443Z,9.50
2023-01-21T10:00:29.938Z,8.33
2023-01-21T10:03:12.349Z,9.10
2023-01-21T10:06:23.016Z,8.13
2023-01-21T10:08:58.965Z,7.47
2023-01-21T10:11:29.406Z,8.97
2023-01-21T10:14:13.510Z,8.63
2023-01-21T10:16:45.653Z,5.30
2023-01-21T10:19:17.132Z,6.30
2023-01-21T10:21:51.136Z,6.57
2023-01-21T10:24:23.581Z,7.53
2023-01-21T10:26:52.649Z,7.67
2023-01-21T10:29:20.816Z,7.20
2023-01-21T10:31:54.701Z,7.40
2023-01-21T10:34:20.793Z,6.20
2023-01-21T10:37:06.556Z,6.47
2023-01-21T10:39:44.550Z,6.53
2023-01-21T10:42:35.586Z,5.80
2023-01-21T10:45:20.645Z,5.80
2023-01-21T10:47:59.831Z,6.70
2023-01-21T10:50:44.609Z,6.73
2023-01-21T10:53:25.608Z,6.70
2023-01-21T10:56:02.623Z,6.07
2023-01-21T10:58:39.947Z,6.40
2023-01-21T11:01:13.618Z,6.00
2023-01-21T11:03:46.824Z,8.97
2023-01-21T11:06:15.545Z,5.80
2023-01-21T11:08:44.479Z,4.57
2023-01-21T11:11:11.077Z,5.23
2023-01-21T11:13:37.177Z,5.43
2023-01-21T11:16:04.181Z,5.07
2023-01-21T11:18:36.843Z,5.90
2023-01-21T11:21:24.336Z,5.80
2023-01-21T11:23:56.393Z,5.50
2023-01-21T11:26:27.831Z,5.53
2023-01-21T11:29:06.950Z,6.50
2023-01-21T11:31:33.540Z,6.77
2023-01-21T11:34:16.590Z,7.63
2023-01-21T11:37:08.171Z,6.80
2023-01-21T11:39:40.866Z,6.87
2023-01-21T11:42:13.465Z,8.13
2023-01-21T11:45:00.778Z,8.27
2023-01-21T11:47:51.766Z,8.00
2023-01-21T11:50:28.266Z,6.80
2023-01-21T11:53:06.301Z,8.03
2023-01-21T11:55:33.606Z,7.50
2023-01-21T11:57:59.816Z,6.73
2023-01-21T12:00:29.034Z,6.83
2023-01-21T12:03:01.151Z,7.20
2023-01-21T12:05:32.673Z,7.20
2023-01-21T12:07:59.156Z,6.80
2023-01-21T12:10:51.401Z,6.07
2023-01-21T12:13:30.327Z,6.53
2023-01-21T12:16:19.999Z,6.80
2023-01-21T12:19:02.295Z,6.10
2023-01-21T12:22:01.005Z,6.50
2023-01-21T12:24:46.146Z,6.03
2023-01-21T12:27:18.407Z,6.47
2023-01-21T12:30:22.219Z,5.70
2023-01-21T12:32:55.995Z,5.23
2023-01-21T12:35:30.773Z,5.50
2023-01-21T12:38:05.834Z,5.37
2023-01-21T12:40:34.153Z,5.47
2023-01-21T12:43:06.128Z,5.60
2023-01-21T12:45:47.922Z,5.43
2023-01-21T12:48:20.018Z,6.40
2023-01-21T12:50:51.360Z,6.13
2023-01-21T12:53:40.114Z,16.13
2023-01-21T12:56:31.542Z,6.83
2023-01-21T12:59:03.444Z,6.83
2023-01-21T13:01:44.165Z,6.70
2023-01-21T13:04:29.952Z,7.90
2023-01-21T13:07:11.260Z,6.80
2023-01-21T13:09:43.978Z,8.40
2023-01-21T13:12:25.235Z,7.97
2023-01-21T13:15:04.055Z,7.30
2023-01-21T13:17:34.731Z,7.50
2023-01-21T13:20:11.553Z,7.30
2023-01-21T13:22:59.466Z,7.73
2023-01-21T13:25:40.523Z,6.93
2023-01-21T13:28:28.070Z,6.73
2023-01-21T13:31:24.980Z,7.27
2023-01-21T13:34:15.586Z,6.60
2023-01-21T13:36:41.605Z,6.13
2023-01-21T13:39:23.379Z,7.00
2023-01-21T13:42:02.464Z,6.97
2023-01-21T13:44:47.386Z,7.00
2023-01-21T13:47:36.277Z,6.93
2023-01-21T13:50:02.288Z,7.97
2023-01-21T13:52:39.292Z,6.80
2023-01-21T13:55:08.602Z,7.30
2023-01-21T13:57:37.584Z,7.80
2023-01-21T14:00:35.771Z,7.10
2023-01-21T14:03:01.834Z,7.37
2023-01-21T14:05:42.687Z,7.13
2023-01-21T14:08:29.735Z,7.07
2023-01-21T14:11:06.759Z,7.30
2023-01-21T14:13:56.119Z,7.43
2023-01-21T14:16:32.293Z,7.40
2023-01-21T14:19:01.382Z,7.30
2023-01-21T14:21:59.286Z,7.07
2023-01-21T14:24:50.953Z,7.33
2023-01-21T14:27:41.948Z,7.03
2023-01-21T14:30:22.584Z,6.63
2023-01-21T14:32:56.654Z,6.23
2023-01-21T14:35:32.232Z,6.23
2023-01-21T14:38:12.883Z,6.57
2023-01-21T14:40:48.118Z,7.23
2023-01-21T14:43:42.203Z,6.77
2023-01-21T14:46:32.035Z,6.50
2023-01-21T14:49:07.422Z,5.90
2023-01-21T14:51:44.047Z,6.10
2023-01-21T14:54:17.790Z,6.70
2023-01-21T14:57:01.656Z,6.30
2023-01-21T14:59:41.071Z,6.00
2023-01-21T15:02:39.535Z,5.83
2023-01-21T15:05:09.737Z,6.13
2023-01-21T15:07:44.150Z,15.30
2023-01-21T15:10:18.233Z,7.90
2023-01-21T15:12:56.108Z,8.30
2023-01-21T15:15:30.132Z,8.47
2023-01-21T15:18:22.111Z,6.80
2023-01-21T15:20:57.352Z,5.90
2023-01-21T15:23:29.648Z,6.40
2023-01-21T15:26:10.521Z,6.60
2023-01-21T15:28:51.263Z,5.60
2023-01-21T15:31:22.787Z,5.93
2023-01-21T15:33:58.215Z,7.07
2023-01-21T15:36:31.351Z,6.23
2023-01-21T15:39:11.236Z,5.53
2023-01-21T15:42:04.467Z,6.40
2023-01-21T15:44:47.652Z,6.37
2023-01-21T15:47:30.958Z,6.03
2023-01-21T15:50:04.977Z,6.60
2023-01-21T15:52:49.358Z,6.23
2023-01-21T15:55:24.303Z,5.23
2023-01-21T15:57:56.404Z,5.53
2023-01-21T16:00:35.672Z,5.90
2023-01-21T16:03:29.940Z,6.27
2023-01-21T16:06:03.921Z,6.17
2023-01-21T16:08:52.736Z,5.83
2023-01-21T16:11:41.032Z,6.40
2023-01-21T16:14:38.123Z,6.57
2023-01-21T16:17:19.692Z,7.53
2023-01-21T16:19:49.735Z,6.93
2023-01-21T16:22:23.229Z,7.70
2023-01-21T16:24:52.728Z,7.23
2023-01-21T16:27:22.806Z,6.70
2023-01-21T16:30:04.165Z,7.40
2023-01-21T16:32:36.722Z,6.70
2023-01-21T16:35:03.151Z,7.70
2023-01-21T16:37:30.205Z,7.10
2023-01-21T16:40:19.004Z,7.00
2023-01-21T16:42:45.154Z,6.93
2023-01-21T16:45:25.264Z,6.93
2023-01-21T16:47:56.733Z,6.13
2023-01-21T16:50:30.305Z,7.20
2023-01-21T16:52:58.450Z,5.70
2023-01-21T16:55:31.530Z,8.10
2023-01-21T16:58:03.150Z,7.83
2023-01-21T17:00:31.538Z,7.97
2023-01-21T17:03:02.908Z,8.63
2023-01-21T17:05:35.390Z,7.93
2023-01-21T17:08:10.412Z,7.20
2023-01-21T17:10:38.811Z,7.60
2023-01-21T17:13:15.257Z,7.80
2023-01-21T17:15:57.908Z,7.70
2023-01-21T17:18:31.862Z,8.40
2023-01-21T17:21:06.829Z,8.30
2023-01-21T17:23:50.774Z,7.60
2023-01-21T17:26:26.573Z,7.80
2023-01-21T17:29:08.166Z,8.13
2023-01-21T17:31:44.437Z,8.97
2023-01-21T17:34:15.607Z,7.50
2023-01-21T17:36:49.533Z,8.83
2023-01-21T17:39:47.445Z,7.73
2023-01-21T17:42:20.949Z,7.37
2023-01-21T17:45:03.872Z,34.47
2023-01-21T17:47:32.761Z,8.10
2023-01-21T17:50:03.095Z,12.17
2023-01-21T17:52:29.313Z,9.87
2023-01-21T17:55:16.084Z,7.80
2023-01-21T17:57:42.373Z,6.83
2023-01-21T18:00:46.749Z,7.73
2023-01-21T18:03:17.285Z,7.97
2023-01-21T18:05:43.475Z,7.53
2023-01-21T18:08:16.069Z,5.80
2023-01-21T18:10:47.726Z,8.03
2023-01-21T18:13:16.724Z,9.67
2023-01-21T18:15:50.932Z,8.33
2023-01-21T18:18:24.938Z,7.67
2023-01-21T18:20:55.692Z,8.97
2023-01-21T18:23:30.219Z,9.53
2023-01-21T18:26:00.990Z,9.30
2023-01-21T18:28:32.134Z,9.13
2023-01-21T18:31:09.760Z,8.60
2023-01-21T18:33:40.258Z,10.90
2023-01-21T18:36:11.186Z,9.07
2023-01-21T18:38:41.701Z,9.47
2023-01-21T18:41:12.787Z,9.43
2023-01-21T18:43:43.249Z,9.17
2023-01-21T18:46:15.574Z,10.00
2023-01-21T18:48:48.162Z,9.40
2023-01-21T18:51:18.824Z,9.90
2023-01-21T18:53:49.519Z,8.57
2023-01-21T18:56:25.261Z,9.17
2023-01-21T18:58:56.133Z,9.90
2023-01-21T19:01:26.979Z,9.17
2023-01-21T19:03:57.416Z,9.40
2023-01-21T19:06:28.676Z,9.20
2023-01-21T19:09:00.649Z,10.40
2023-01-21T19:11:31.461Z,8.80
2023-01-21T19:14:06.116Z,9.73
2023-01-21T19:16:37.127Z,9.07
2023-01-21T19:19:12.435Z,10.20
2023-01-21T19:21:46.947Z,9.50
2023-01-21T19:24:17.469Z,8.93
2023-01-21T19:26:48.004Z,8.20
2023-01-21T19:29:24.058Z,10.63
2023-01-21T19:31:54.736Z,9.60
2023-01-21T19:34:26.016Z,9.63
2023-01-21T19:36:56.554Z,10.53
2023-01-21T19:39:31.998Z,9.83
2023-01-21T19:42:08.372Z,9.83
2023-01-21T19:44:39.798Z,9.27
2023-01-21T19:47:27.241Z,9.93
2023-01-21T19:49:53.488Z,10.37
2023-01-21T19:52:23.414Z,9.33
2023-01-21T19:54:55.179Z,9.03
2023-01-21T19:57:23.785Z,9.93
2023-01-21T19:59:53.928Z,9.67
2023-01-21T20:02:25.538Z,9.00
2023-01-21T20:04:56.003Z,10.47
2023-01-21T20:07:26.234Z,11.20
2023-01-21T20:09:56.118Z,10.30
2023-01-21T20:12:27.931Z,11.20
2023-01-21T20:14:58.899Z,10.93
2023-01-21T20:17:33.366Z,10.30
2023-01-21T20:19:59.420Z,10.70
2023-01-21T20:22:29.489Z,9.90
2023-01-21T20:25:00.332Z,11.00
2023-01-21T20:27:30.230Z,10.27
2023-01-21T20:30:16.734Z,10.60
2023-01-21T20:32:42.844Z,9.23
2023-01-21T20:35:08.988Z,9.70
2023-01-21T20:37:35.041Z,9.40
2023-01-21T20:40:05.266Z,10.40
2023-01-21T20:42:34.917Z,10.97
2023-01-21T20:45:05.693Z,10.43
2023-01-21T20:47:49.652Z,10.50
2023-01-21T20:50:22.549Z,10.47
2023-01-21T20:52:49.581Z,9.70
2023-01-21T20:55:25.493Z,11.63
2023-01-21T20:57:52.010Z,11.30
2023-01-21T21:00:26.432Z,11.40
2023-01-21T21:02:55.622Z,11.70
2023-01-21T21:05:22.072Z,11.10
2023-01-21T21:07:48.142Z,10.90
2023-01-21T21:10:30.983Z,10.50
2023-01-21T21:13:03.388Z,9.20
2023-01-21T21:15:33.746Z,11.07
2023-01-21T21:18:00.662Z,10.00
2023-01-21T21:20:32.388Z,10.53
2023-01-21T21:23:00.955Z,8.63
2023-01-21T21:25:29.554Z,9.80
2023-01-21T21:27:55.960Z,8.67
2023-01-21T21:30:31.419Z,10.13
2023-01-21T21:32:59.186Z,9.20
2023-01-21T21:35:28.069Z,9.70
2023-01-21T21:37:58.812Z,9.90
2023-01-21T21:40:29.845Z,8.67
2023-01-21T21:43:19.586Z,9.10
2023-01-21T21:46:04.650Z,9.50
2023-01-21T21:48:37.723Z,8.37
2023-01-21T21:51:09.311Z,7.93
2023-01-21T21:53:40.863Z,9.03
2023-01-21T21:56:17.749Z,8.53
2023-01-21T21:58:44.081Z,9.00
2023-01-21T22:01:14.407Z,6.70
2023-01-21T22:03:44.963Z,8.60
2023-01-21T22:06:17.038Z,8.93
2023-01-21T22:08:43.397Z,8.50
2023-01-21T22:11:18.751Z,7.30
2023-01-21T22:13:50.612Z,7.17
2023-01-21T22:16:23.017Z,7.30
2023-01-21T22:18:59.367Z,6.70
2023-01-21T22:21:33.668Z,8.13
2023-01-21T22:24:02.567Z,6.97
2023-01-21T22:26:36.823Z,7.27
2023-01-21T22:29:07.334Z,6.63
2023-01-21T22:31:33.574Z,6.10
2023-01-21T22:33:59.979Z,7.53
2023-01-21T22:36:32.284Z,6.97
2023-01-21T22:39:03.064Z,6.60
2023-01-21T22:41:34.023Z,7.30
2023-01-21T22:44:09.626Z,6.90
2023-01-21T22:46:40.951Z,6.80
2023-01-21T22:49:11.671Z,5.97
2023-01-21T22:51:43.175Z,6.23
2023-01-21T22:54:14.083Z,5.30
2023-01-21T22:56:52.085Z,6.27
2023-01-21T22:59:24.202Z,6.27
2023-01-21T23:01:55.083Z,6.40
2023-01-21T23:04:25.952Z,5.23
2023-01-21T23:06:56.939Z,6.43
2023-01-21T23:09:30.886Z,6.30
2023-01-21T23:12:00.894Z,6.43
2023-01-21T23:14:31.384Z,5.80
2023-01-21T23:17:04.055Z,6.00
2023-01-21T23:19:34.022Z,6.33
2023-01-21T23:22:04.194Z,5.73
2023-01-21T23:24:33.951Z,5.60
2023-01-21T23:27:05.634Z,6.60
2023-01-21T23:29:34.956Z,5.30
2023-01-21T23:32:05.307Z,5.97
2023-01-21T23:34:37.118Z,5.57
2023-01-21T23:37:07.937Z,5.03
2023-01-21T23:39:37.861Z,5.90
2023-01-21T23:42:07.761Z,5.20
2023-01-21T23:44:38.602Z,4.50
2023-01-21T23:47:08.770Z,5.07
2023-01-21T23:49:38.994Z,4.57
2023-01-21T23:52:11.841Z,4.57
2023-01-21T23:54:45.332Z,4.90
2023-01-21T23:57:12.725Z,4.80
2023-01-21T23:59:43.409Z,4.73
